Back to Top

Language: 

My Weather Underground Personal Weather Station Historical Data with Graphs...

Delerius Weather Station Historical Data
Daily Summary for December 9, 2017 Units:  Metric    English   Both
« Previous Day
Next Day »
Daily Weekly Monthly Yearly Custom
  High: Low: Average:
Temperature: 2.6 °C -1.3 °C 0.8 °C
Dew Point: 0.2 °C -3.8 °C -1.4 °C
Humidity: 94 % 75 % 85 %
Wind Speed: 22.5 km/h 0 km/h 9.5 km/h
Wind Gust: 35.4 km/h - -
Wind:- - WNW
Pressure: 1016.5 hPa 1000.2 hPa -
Precipitation: 0 mm    
Historical Graphs
 
 
Tabular Data for December 9, 2017
Time Temperature Dew Point Pressure Wind Wind Speed Wind Gust Humidity Rainfall Rate (Hourly) solar Conditions
00:04 0.6 °C -3.2 °C 1016.1 hPa WNW 16.1 km/h 25.7 km/h 76 % 0 mm 0 W/m2
00:09 0.6 °C -3.2 °C 1016.1 hPa WNW 17.7 km/h 29 km/h 76 % 0 mm 0 W/m2
00:14 0.6 °C -3.2 °C 1016.1 hPa WNW 19.3 km/h 25.7 km/h 76 % 0 mm 0 W/m2
00:19 0.6 °C -3.2 °C 1016.1 hPa WNW 17.7 km/h 33.8 km/h 76 % 0 mm 0 W/m2
00:24 0.6 °C -3.2 °C 1016.1 hPa WNW 17.7 km/h 30.6 km/h 76 % 0 mm 0 W/m2
00:29 0.6 °C -3.2 °C 1016.1 hPa WNW 16.1 km/h 25.7 km/h 76 % 0 mm 0 W/m2
00:34 0.6 °C -3.2 °C 1016.1 hPa WNW 16.1 km/h 25.7 km/h 76 % 0 mm 0 W/m2
00:39 0.6 °C -3.2 °C 1016.1 hPa WNW 16.1 km/h 32.2 km/h 76 % 0 mm 0 W/m2
00:44 0.6 °C -3.2 °C 1016.5 hPa WNW 19.3 km/h 29 km/h 76 % 0 mm 0 W/m2
00:49 0.7 °C -3.2 °C 1016.1 hPa WNW 17.7 km/h 33.8 km/h 75 % 0 mm 0 W/m2
00:54 0.7 °C -3.2 °C 1016.1 hPa WNW 16.1 km/h 24.1 km/h 75 % 0 mm 0 W/m2
00:59 0.8 °C -2.9 °C 1016.1 hPa WNW 19.3 km/h 30.6 km/h 76 % 0 mm 0 W/m2
01:05 0.8 °C -2.9 °C 1016.1 hPa WNW 22.5 km/h 32.2 km/h 76 % 0 mm 0 W/m2
01:10 0.8 °C -2.9 °C 1016.1 hPa WNW 20.9 km/h 35.4 km/h 76 % 0 mm 0 W/m2
01:15 0.8 °C -2.9 °C 1016.1 hPa WNW 19.3 km/h 29 km/h 76 % 0 mm 0 W/m2
01:20 0.8 °C -2.9 °C 1016.1 hPa WNW 20.9 km/h 30.6 km/h 76 % 0 mm 0 W/m2
01:25 0.7 °C -3.1 °C 1016.1 hPa WNW 19.3 km/h 25.7 km/h 76 % 0 mm 0 W/m2
01:30 0.7 °C -2.9 °C 1016.1 hPa WNW 22.5 km/h 33.8 km/h 77 % 0 mm 0 W/m2
01:35 0.7 °C -2.9 °C 1016.1 hPa WNW 20.9 km/h 33.8 km/h 77 % 0 mm 0 W/m2
01:40 0.8 °C -2.8 °C 1016.1 hPa WNW 17.7 km/h 24.1 km/h 77 % 0 mm 0 W/m2
01:45 0.7 °C -2.9 °C 1016.1 hPa WNW 16.1 km/h 25.7 km/h 77 % 0 mm 0 W/m2
01:55 0.7 °C -2.7 °C 1016.1 hPa WNW 20.9 km/h 30.6 km/h 78 % 0 mm 0 W/m2
02:00 0.7 °C -2.9 °C 1016.1 hPa WNW 17.7 km/h 30.6 km/h 77 % 0 mm 0 W/m2
02:10 0.7 °C -2.7 °C 1016.5 hPa WNW 17.7 km/h 22.5 km/h 78 % 0 mm 0 W/m2
02:15 0.7 °C -2.9 °C 1016.5 hPa WNW 14.5 km/h 20.9 km/h 77 % 0 mm 0 W/m2
02:20 0.7 °C -2.9 °C 1016.5 hPa WNW 16.1 km/h 29 km/h 77 % 0 mm 0 W/m2
02:25 0.8 °C -2.8 °C 1016.5 hPa WNW 17.7 km/h 32.2 km/h 77 % 0 mm 0 W/m2
02:30 0.8 °C -2.6 °C 1016.5 hPa WNW 17.7 km/h 29 km/h 78 % 0 mm 0 W/m2
02:35 0.8 °C -2.6 °C 1016.1 hPa WNW 14.5 km/h 20.9 km/h 78 % 0 mm 0 W/m2
02:40 0.7 °C -2.7 °C 1016.1 hPa WNW 16.1 km/h 25.7 km/h 78 % 0 mm 0 W/m2
02:45 0.7 °C -2.7 °C 1016.1 hPa NW 12.9 km/h 19.3 km/h 78 % 0 mm 0 W/m2
02:50 0.6 °C -2.8 °C 1016.1 hPa WNW 12.9 km/h 20.9 km/h 78 % 0 mm 0 W/m2
02:55 0.6 °C -2.8 °C 1016.1 hPa WNW 14.5 km/h 22.5 km/h 78 % 0 mm 0 W/m2
03:00 0.6 °C -2.8 °C 1016.1 hPa WNW 16.1 km/h 24.1 km/h 78 % 0 mm 0 W/m2
03:05 0.6 °C -2.8 °C 1016.1 hPa WNW 14.5 km/h 19.3 km/h 78 % 0 mm 0 W/m2
03:10 0.6 °C -2.6 °C 1016.1 hPa WNW 11.3 km/h 16.1 km/h 79 % 0 mm 0 W/m2
03:16 0.5 °C -2.7 °C 1016.1 hPa WNW 9.7 km/h 17.7 km/h 79 % 0 mm 0 W/m2
03:20 0.4 °C -2.8 °C 1016.1 hPa NW 9.7 km/h 14.5 km/h 79 % 0 mm 0 W/m2
03:21 0.4 °C -2.8 °C 1016.1 hPa NW 11.3 km/h 14.5 km/h 79 % 0 mm 0 W/m2
03:26 0.3 °C -2.7 °C 1016.1 hPa NW 9.7 km/h 19.3 km/h 80 % 0 mm 0 W/m2
03:29 0.3 °C -2.7 °C 1016.1 hPa WNW 8 km/h 12.9 km/h 80 % 0 mm 0 W/m2
03:34 0.2 °C -2.8 °C 1016.1 hPa WNW 12.9 km/h 19.3 km/h 80 % 0 mm 0 W/m2
03:39 0.2 °C -2.8 °C 1016.1 hPa WNW 16.1 km/h 24.1 km/h 80 % 0 mm 0 W/m2
03:44 0.3 °C -2.7 °C 1016.1 hPa WNW 16.1 km/h 22.5 km/h 80 % 0 mm 0 W/m2
03:49 0.3 °C -2.7 °C 1015.8 hPa WNW 14.5 km/h 24.1 km/h 80 % 0 mm 0 W/m2
03:54 0.3 °C -2.7 °C 1015.8 hPa WNW 16.1 km/h 22.5 km/h 80 % 0 mm 0 W/m2
04:04 0.3 °C -2.7 °C 1015.8 hPa WNW 12.9 km/h 17.7 km/h 80 % 0 mm 0 W/m2
04:09 0.3 °C -2.7 °C 1015.8 hPa WNW 11.3 km/h 17.7 km/h 80 % 0 mm 0 W/m2
04:14 0.3 °C -2.7 °C 1015.8 hPa WNW 12.9 km/h 19.3 km/h 80 % 0 mm 0 W/m2
04:19 0.3 °C -2.7 °C 1015.8 hPa WNW 11.3 km/h 14.5 km/h 80 % 0 mm 0 W/m2
04:24 0.2 °C -2.8 °C 1015.8 hPa West 8 km/h 11.3 km/h 80 % 0 mm 0 W/m2
04:29 0.1 °C -2.9 °C 1015.5 hPa West 8 km/h 12.9 km/h 80 % 0 mm 0 W/m2
04:34 0.1 °C -2.8 °C 1015.5 hPa WNW 9.7 km/h 14.5 km/h 81 % 0 mm 0 W/m2
04:39 0 °C -2.9 °C 1015.5 hPa WNW 12.9 km/h 19.3 km/h 81 % 0 mm 0 W/m2
04:44 0 °C -2.9 °C 1015.5 hPa WNW 17.7 km/h 29 km/h 81 % 0 mm 0 W/m2
04:54 0.3 °C -2.7 °C 1015.5 hPa WNW 19.3 km/h 29 km/h 80 % 0 mm 0 W/m2
04:57 0.3 °C -2.7 °C 1015.5 hPa WNW 17.7 km/h 29 km/h 80 % 0 mm 0 W/m2
05:02 0.4 °C -2.7 °C 1015.5 hPa WNW 20.9 km/h 30.6 km/h 80 % 0 mm 0 W/m2
05:07 0.5 °C -2.7 °C 1015.5 hPa WNW 17.7 km/h 25.7 km/h 79 % 0 mm 0 W/m2
05:12 0.5 °C -2.7 °C 1015.5 hPa WNW 16.1 km/h 20.9 km/h 79 % 0 mm 0 W/m2
05:17 0.5 °C -2.9 °C 1015.5 hPa WNW 17.7 km/h 25.7 km/h 78 % 0 mm 0 W/m2
05:22 0.5 °C -2.9 °C 1015.5 hPa WNW 14.5 km/h 20.9 km/h 78 % 0 mm 0 W/m2
05:27 0.4 °C -3 °C 1015.5 hPa WNW 12.9 km/h 22.5 km/h 78 % 0 mm 0 W/m2
05:32 0.4 °C -3 °C 1015.5 hPa WNW 12.9 km/h 19.3 km/h 78 % 0 mm 0 W/m2
05:42 0.4 °C -3.2 °C 1015.5 hPa West 16.1 km/h 25.7 km/h 77 % 0 mm 0 W/m2
05:52 0.4 °C -3.2 °C 1015.5 hPa West 16.1 km/h 24.1 km/h 77 % 0 mm 0 W/m2
05:57 0.3 °C -3.3 °C 1015.5 hPa West 14.5 km/h 22.5 km/h 77 % 0 mm 0 W/m2
06:02 0.2 °C -3.2 °C 1015.5 hPa WNW 14.5 km/h 20.9 km/h 78 % 0 mm 0 W/m2
06:07 0.1 °C -3.3 °C 1015.5 hPa WNW 14.5 km/h 20.9 km/h 78 % 0 mm 0 W/m2
06:12 0 °C -3.4 °C 1015.5 hPa WNW 11.3 km/h 14.5 km/h 78 % 0 mm 0 W/m2
06:18 -0.1 °C -3.5 °C 1015.5 hPa WNW 12.9 km/h 17.7 km/h 78 % 0 mm 0 W/m2
06:23 -0.2 °C -3.6 °C 1015.5 hPa WNW 12.9 km/h 17.7 km/h 78 % 0 mm 0 W/m2
06:28 -0.3 °C -3.5 °C 1015.5 hPa WNW 11.3 km/h 16.1 km/h 79 % 0 mm 0 W/m2
06:33 -0.3 °C -3.5 °C 1015.5 hPa WNW 11.3 km/h 16.1 km/h 79 % 0 mm 0 W/m2
06:38 -0.3 °C -3.5 °C 1015.5 hPa WNW 11.3 km/h 16.1 km/h 79 % 0 mm 0 W/m2
06:43 -0.4 °C -3.6 °C 1015.5 hPa WNW 11.3 km/h 14.5 km/h 79 % 0 mm 0 W/m2
06:48 -0.4 °C -3.6 °C 1015.5 hPa WNW 8 km/h 11.3 km/h 79 % 0 mm 0 W/m2
06:53 -0.5 °C -3.7 °C 1015.5 hPa WNW 8 km/h 11.3 km/h 79 % 0 mm 0 W/m2
06:58 -0.6 °C -3.8 °C 1015.5 hPa WNW 8 km/h 9.7 km/h 79 % 0 mm 0 W/m2
07:03 -0.7 °C -3.7 °C 1015.5 hPa WNW 8 km/h 11.3 km/h 80 % 0 mm 0 W/m2
07:08 -0.8 °C -3.8 °C 1015.5 hPa West 4.8 km/h 8 km/h 80 % 0 mm 0 W/m2
07:13 -0.9 °C -3.8 °C 1015.5 hPa WNW 8 km/h 12.9 km/h 81 % 0 mm 0 W/m2
07:18 -0.9 °C -3.8 °C 1015.1 hPa WNW 8 km/h 11.3 km/h 81 % 0 mm 0 W/m2
07:23 -0.9 °C -3.6 °C 1015.1 hPa WNW 8 km/h 12.9 km/h 82 % 0 mm 0 W/m2
07:28 -0.9 °C -3.6 °C 1015.1 hPa West 8 km/h 11.3 km/h 82 % 0 mm 0 W/m2
07:33 -0.8 °C -3.5 °C 1015.1 hPa West 9.7 km/h 16.1 km/h 82 % 0 mm 0 W/m2
07:38 -0.8 °C -3.3 °C 1015.1 hPa West 6.4 km/h 11.3 km/h 83 % 0 mm 0 W/m2
07:43 -0.8 °C -3.3 °C 1015.1 hPa WNW 4.8 km/h 9.7 km/h 83 % 0 mm 0 W/m2
07:48 -0.9 °C -3.4 °C 1015.1 hPa West 1.6 km/h 6.4 km/h 83 % 0 mm 0 W/m2
07:53 -1 °C -3.5 °C 1015.1 hPa West 1.6 km/h 3.2 km/h 83 % 0 mm 0 W/m2
07:58 -1.1 °C -3.6 °C 1014.8 hPa Calm   3.2 km/h 83 % 0 mm 0 W/m2
08:03 -1.2 °C -3.6 °C 1014.8 hPa West 3.2 km/h 8 km/h 84 % 0 mm 5 W/m2
08:08 -1.3 °C -3.5 °C 1014.8 hPa West 6.4 km/h 9.7 km/h 85 % 0 mm 5 W/m2
08:13 -1.3 °C -3.5 °C 1014.8 hPa West 8 km/h 11.3 km/h 85 % 0 mm 7 W/m2
08:18 -1.2 °C -3.2 °C 1014.8 hPa West 8 km/h 11.3 km/h 86 % 0 mm 9 W/m2
08:23 -1.1 °C -3.2 °C 1014.8 hPa West 3.2 km/h 8 km/h 86 % 0 mm 11 W/m2
08:33 -0.9 °C -2.9 °C 1014.8 hPa WNW 8 km/h 12.9 km/h 86 % 0 mm 14 W/m2
08:38 -0.8 °C -2.8 °C 1014.8 hPa WNW 11.3 km/h 14.5 km/h 86 % 0 mm 16 W/m2
08:43 -0.6 °C -2.7 °C 1014.8 hPa West 14.5 km/h 20.9 km/h 86 % 0 mm 18 W/m2
08:49 -0.4 °C -2.4 °C 1014.8 hPa West 11.3 km/h 16.1 km/h 86 % 0 mm 19 W/m2
08:54 -0.3 °C -2.3 °C 1014.8 hPa WNW 11.3 km/h 16.1 km/h 86 % 0 mm 21 W/m2
08:59 -0.2 °C -2.3 °C 1014.8 hPa WNW 12.9 km/h 19.3 km/h 86 % 0 mm 26 W/m2
09:04 -0.1 °C -2.2 °C 1014.8 hPa WNW 11.3 km/h 16.1 km/h 86 % 0 mm 32 W/m2
09:09 0.1 °C -1.9 °C 1014.8 hPa WNW 11.3 km/h 17.7 km/h 86 % 0 mm 26 W/m2
09:14 0.1 °C -1.9 °C 1014.8 hPa WNW 9.7 km/h 12.9 km/h 86 % 0 mm 23 W/m2
09:19 0.1 °C -2.1 °C 1014.8 hPa WNW 9.7 km/h 14.5 km/h 85 % 0 mm 25 W/m2
09:24 0.1 °C -1.9 °C 1014.8 hPa WNW 8 km/h 12.9 km/h 86 % 0 mm 32 W/m2
09:29 0.1 °C -1.9 °C 1014.4 hPa WNW 8 km/h 14.5 km/h 86 % 0 mm 37 W/m2
09:34 0.2 °C -1.9 °C 1014.4 hPa West 9.7 km/h 12.9 km/h 86 % 0 mm 139 W/m2
09:39 0.4 °C -1.5 °C 1014.4 hPa West 9.7 km/h 14.5 km/h 87 % 0 mm 146 W/m2
09:44 0.7 °C -1.2 °C 1014.4 hPa West 11.3 km/h 17.7 km/h 87 % 0 mm 104 W/m2
09:49 0.9 °C -1 °C 1014.4 hPa WNW 12.9 km/h 19.3 km/h 87 % 0 mm 171 W/m2
09:54 1.2 °C -0.9 °C 1014.4 hPa West 14.5 km/h 19.3 km/h 86 % 0 mm 188 W/m2
09:55 1.2 °C -0.9 °C 1014.4 hPa West 12.9 km/h 19.3 km/h 86 % 0 mm 113 W/m2
10:00 1.3 °C -0.8 °C 1014.4 hPa West 14.5 km/h 22.5 km/h 86 % 0 mm 93 W/m2
10:05 1.3 °C -0.8 °C 1014.4 hPa West 14.5 km/h 20.9 km/h 86 % 0 mm 77 W/m2
10:10 1.3 °C -0.8 °C 1014.4 hPa WNW 11.3 km/h 16.1 km/h 86 % 0 mm 74 W/m2
10:15 1.3 °C -0.6 °C 1014.4 hPa West 9.7 km/h 17.7 km/h 87 % 0 mm 111 W/m2
10:20 1.3 °C -0.6 °C 1014.4 hPa West 9.7 km/h 14.5 km/h 87 % 0 mm 134 W/m2
10:25 1.4 °C -0.6 °C 1014.4 hPa WNW 8 km/h 12.9 km/h 87 % 0 mm 121 W/m2
10:30 1.4 °C -0.6 °C 1014.1 hPa West 8 km/h 14.5 km/h 87 % 0 mm 120 W/m2
10:35 1.5 °C -0.4 °C 1014.1 hPa WNW 6.4 km/h 11.3 km/h 87 % 0 mm 86 W/m2
10:40 1.6 °C -0.3 °C 1014.1 hPa West 8 km/h 12.9 km/h 87 % 0 mm 86 W/m2
10:45 1.6 °C -0.3 °C 1014.1 hPa WNW 9.7 km/h 16.1 km/h 87 % 0 mm 88 W/m2
10:50 1.7 °C -0.4 °C 1013.8 hPa WNW 8 km/h 16.1 km/h 86 % 0 mm 97 W/m2
10:55 1.8 °C -0.3 °C 1013.8 hPa West 9.7 km/h 17.7 km/h 86 % 0 mm 97 W/m2
11:00 1.9 °C -0.3 °C 1013.8 hPa West 12.9 km/h 20.9 km/h 85 % 0 mm 98 W/m2
11:05 1.9 °C -0.3 °C 1013.4 hPa West 8 km/h 12.9 km/h 85 % 0 mm 104 W/m2
11:13 2.1 °C -0.2 °C 1013.4 hPa West 6.4 km/h 11.3 km/h 85 % 0 mm 105 W/m2
11:18 2.1 °C -0.3 °C 1013.4 hPa West 3.2 km/h 9.7 km/h 84 % 0 mm 104 W/m2
11:23 2.1 °C -0.3 °C 1013.4 hPa West 8 km/h 14.5 km/h 84 % 0 mm 97 W/m2
11:28 2.2 °C -0.2 °C 1013.4 hPa West 4.8 km/h 11.3 km/h 84 % 0 mm 90 W/m2
11:33 2.2 °C -0.2 °C 1013.4 hPa West 9.7 km/h 14.5 km/h 84 % 0 mm 81 W/m2
11:38 2.3 °C -0.3 °C 1013.4 hPa WNW 11.3 km/h 19.3 km/h 83 % 0 mm 76 W/m2
11:43 2.3 °C -0.3 °C 1013.1 hPa West 11.3 km/h 17.7 km/h 83 % 0 mm 83 W/m2
11:48 2.3 °C -0.3 °C 1013.1 hPa West 14.5 km/h 20.9 km/h 83 % 0 mm 81 W/m2
11:53 2.3 °C -0.3 °C 1013.1 hPa West 11.3 km/h 16.1 km/h 83 % 0 mm 77 W/m2
11:58 2.3 °C -0.3 °C 1013.1 hPa West 11.3 km/h 14.5 km/h 83 % 0 mm 74 W/m2
12:03 2.3 °C -0.3 °C 1012.8 hPa West 12.9 km/h 17.7 km/h 83 % 0 mm 74 W/m2
12:08 2.4 °C -0.2 °C 1013.1 hPa WNW 12.9 km/h 24.1 km/h 83 % 0 mm 67 W/m2
12:13 2.4 °C -0.3 °C 1012.8 hPa West 16.1 km/h 24.1 km/h 82 % 0 mm 51 W/m2
12:18 2.4 °C -0.3 °C 1012.8 hPa West 16.1 km/h 22.5 km/h 82 % 0 mm 60 W/m2
12:23 2.4 °C -0.3 °C 1012.8 hPa West 16.1 km/h 22.5 km/h 82 % 0 mm 60 W/m2
12:28 2.4 °C -0.3 °C 1012.8 hPa West 14.5 km/h 24.1 km/h 82 % 0 mm 74 W/m2
12:33 2.4 °C -0.3 °C 1012.4 hPa West 16.1 km/h 24.1 km/h 82 % 0 mm 79 W/m2
12:38 2.4 °C -0.6 °C 1012.4 hPa West 17.7 km/h 24.1 km/h 81 % 0 mm 83 W/m2
12:43 2.4 °C -0.6 °C 1012.4 hPa West 14.5 km/h 29 km/h 81 % 0 mm 83 W/m2
12:48 2.4 °C -0.6 °C 1012.4 hPa West 16.1 km/h 22.5 km/h 81 % 0 mm 88 W/m2
12:53 2.5 °C -0.4 °C 1012.1 hPa WNW 12.9 km/h 22.5 km/h 81 % 0 mm 88 W/m2
12:59 2.5 °C -0.4 °C 1012.1 hPa West 16.1 km/h 24.1 km/h 81 % 0 mm 83 W/m2
13:04 2.6 °C -0.3 °C 1012.1 hPa West 14.5 km/h 24.1 km/h 81 % 0 mm 84 W/m2
13:09 2.6 °C -0.3 °C 1012.1 hPa West 14.5 km/h 22.5 km/h 81 % 0 mm 74 W/m2
13:14 2.6 °C -0.3 °C 1012.1 hPa West 12.9 km/h 17.7 km/h 81 % 0 mm 63 W/m2
13:19 2.6 °C -0.3 °C 1011.7 hPa West 12.9 km/h 19.3 km/h 81 % 0 mm 60 W/m2
13:24 2.6 °C -0.2 °C 1011.7 hPa West 9.7 km/h 14.5 km/h 82 % 0 mm 60 W/m2
13:29 2.6 °C -0.2 °C 1011.7 hPa West 11.3 km/h 17.7 km/h 82 % 0 mm 62 W/m2
13:34 2.6 °C -0.2 °C 1011.4 hPa West 11.3 km/h 19.3 km/h 82 % 0 mm 65 W/m2
13:39 2.6 °C 0 °C 1011.4 hPa West 11.3 km/h 20.9 km/h 83 % 0 mm 69 W/m2
13:44 2.6 °C 0 °C 1011.4 hPa West 12.9 km/h 19.3 km/h 83 % 0 mm 67 W/m2
13:49 2.6 °C 0 °C 1011.1 hPa West 14.5 km/h 24.1 km/h 83 % 0 mm 65 W/m2
13:54 2.5 °C -0.1 °C 1011.1 hPa West 11.3 km/h 16.1 km/h 83 % 0 mm 65 W/m2
13:59 2.5 °C -0.1 °C 1011.1 hPa West 11.3 km/h 16.1 km/h 83 % 0 mm 67 W/m2
14:04 2.5 °C -0.1 °C 1010.7 hPa West 9.7 km/h 14.5 km/h 83 % 0 mm 60 W/m2
14:09 2.5 °C -0.1 °C 1010.7 hPa West 9.7 km/h 14.5 km/h 83 % 0 mm 62 W/m2
14:14 2.5 °C -0.1 °C 1010.7 hPa West 8 km/h 17.7 km/h 83 % 0 mm 58 W/m2
14:19 2.5 °C -0.1 °C 1010.7 hPa West 9.7 km/h 14.5 km/h 83 % 0 mm 46 W/m2
14:24 2.4 °C -0.2 °C 1010.7 hPa West 6.4 km/h 9.7 km/h 83 % 0 mm 44 W/m2
14:29 2.4 °C -0.2 °C 1010.4 hPa WSW 11.3 km/h 16.1 km/h 83 % 0 mm 39 W/m2
14:34 2.3 °C -0.3 °C 1010.4 hPa West 11.3 km/h 17.7 km/h 83 % 0 mm 32 W/m2
14:39 2.3 °C -0.1 °C 1010.4 hPa West 8 km/h 14.5 km/h 84 % 0 mm 25 W/m2
14:44 2.1 °C -0.3 °C 1010.4 hPa West 9.7 km/h 16.1 km/h 84 % 0 mm 21 W/m2
14:49 2 °C -0.3 °C 1010 hPa West 6.4 km/h 14.5 km/h 85 % 0 mm 25 W/m2
14:54 1.9 °C -0.3 °C 1010 hPa West 6.4 km/h 8 km/h 85 % 0 mm 35 W/m2
14:59 1.8 °C -0.3 °C 1010 hPa West 8 km/h 12.9 km/h 86 % 0 mm 37 W/m2
15:04 1.8 °C -0.3 °C 1009.7 hPa West 11.3 km/h 16.1 km/h 86 % 0 mm 30 W/m2
15:09 1.9 °C -0.1 °C 1010 hPa West 11.3 km/h 16.1 km/h 87 % 0 mm 25 W/m2
15:14 1.9 °C -0.1 °C 1010 hPa WNW 9.7 km/h 14.5 km/h 87 % 0 mm 21 W/m2
15:19 1.8 °C -0.1 °C 1010 hPa West 9.7 km/h 16.1 km/h 87 % 0 mm 18 W/m2
15:24 1.8 °C -0.1 °C 1010 hPa West 11.3 km/h 20.9 km/h 87 % 0 mm 18 W/m2
15:30 1.7 °C -0.2 °C 1009.7 hPa West 11.3 km/h 16.1 km/h 87 % 0 mm 16 W/m2
15:36 1.6 °C -0.3 °C 1009.7 hPa West 9.7 km/h 16.1 km/h 87 % 0 mm 7 W/m2
15:39 1.6 °C -0.3 °C 1009.4 hPa West 9.7 km/h 16.1 km/h 87 % 0 mm 5 W/m2
15:44 1.6 °C -0.3 °C 1009.4 hPa West 4.8 km/h 11.3 km/h 87 % 0 mm 5 W/m2
15:49 1.5 °C -0.4 °C 1009.4 hPa West 9.7 km/h 14.5 km/h 87 % 0 mm 0 W/m2
15:59 1.4 °C -0.4 °C 1009.4 hPa West 8 km/h 12.9 km/h 88 % 0 mm 0 W/m2
16:04 1.4 °C -0.4 °C 1009.4 hPa West 4.8 km/h 8 km/h 88 % 0 mm 0 W/m2
16:09 1.3 °C -0.4 °C 1009.4 hPa West 9.7 km/h 16.1 km/h 88 % 0 mm 0 W/m2
16:14 1.3 °C -0.4 °C 1009.4 hPa West 8 km/h 11.3 km/h 88 % 0 mm 0 W/m2
16:19 1.3 °C -0.3 °C 1009.4 hPa WSW 6.4 km/h 14.5 km/h 89 % 0 mm 0 W/m2
16:24 1.2 °C -0.4 °C 1009 hPa West 4.8 km/h 9.7 km/h 89 % 0 mm 0 W/m2
16:29 1.2 °C -0.4 °C 1009 hPa West 1.6 km/h 6.4 km/h 89 % 0 mm 0 W/m2
16:34 1.1 °C -0.5 °C 1008.7 hPa Calm   1.6 km/h 89 % 0 mm 0 W/m2
16:39 1 °C -0.6 °C 1008.7 hPa Calm   1.6 km/h 89 % 0 mm 0 W/m2
16:44 0.9 °C -0.7 °C 1008.7 hPa Calm     89 % 0 mm 0 W/m2
16:49 0.8 °C -0.8 °C 1008.4 hPa Calm     89 % 0 mm 0 W/m2
16:54 0.6 °C -1 °C 1008.4 hPa Calm     89 % 0 mm 0 W/m2
16:59 0.5 °C -1.1 °C 1008.4 hPa Calm     89 % 0 mm 0 W/m2
17:04 0.4 °C -1.1 °C 1008.4 hPa West 3.2 km/h 6.4 km/h 90 % 0 mm 0 W/m2
17:09 0.4 °C -0.9 °C 1008.4 hPa West 6.4 km/h 11.3 km/h 91 % 0 mm 0 W/m2
17:19 0.5 °C -0.8 °C 1008.4 hPa West 11.3 km/h 17.7 km/h 91 % 0 mm 0 W/m2
17:24 0.6 °C -0.6 °C 1008.4 hPa West 9.7 km/h 12.9 km/h 92 % 0 mm 0 W/m2
17:29 0.7 °C -0.4 °C 1008.4 hPa WNW 8 km/h 11.3 km/h 92 % 0 mm 0 W/m2
17:34 0.7 °C -0.4 °C 1008.4 hPa WNW 6.4 km/h 11.3 km/h 92 % 0 mm 0 W/m2
17:39 0.7 °C -0.4 °C 1008.4 hPa WNW 8 km/h 9.7 km/h 92 % 0 mm 0 W/m2
17:44 0.7 °C -0.4 °C 1008.4 hPa WNW 6.4 km/h 8 km/h 92 % 0 mm 0 W/m2
17:49 0.7 °C -0.4 °C 1008 hPa WNW 4.8 km/h 8 km/h 92 % 0 mm 0 W/m2
17:54 0.7 °C -0.4 °C 1008 hPa West 9.7 km/h 16.1 km/h 92 % 0 mm 0 W/m2
18:00 0.8 °C -0.3 °C 1007.7 hPa West 8 km/h 12.9 km/h 92 % 0 mm 0 W/m2
18:05 0.8 °C -0.3 °C 1007.7 hPa WNW 9.7 km/h 12.9 km/h 92 % 0 mm 0 W/m2
18:10 0.9 °C -0.3 °C 1007.7 hPa WNW 6.4 km/h 11.3 km/h 92 % 0 mm 0 W/m2
18:15 0.9 °C -0.3 °C 1007.7 hPa West 8 km/h 12.9 km/h 92 % 0 mm 0 W/m2
18:20 0.9 °C -0.3 °C 1007.3 hPa West 8 km/h 12.9 km/h 92 % 0 mm 0 W/m2
18:25 0.9 °C -0.3 °C 1007.3 hPa West 8 km/h 12.9 km/h 92 % 0 mm 0 W/m2
18:30 0.9 °C -0.3 °C 1007.3 hPa West 6.4 km/h 12.9 km/h 92 % 0 mm 0 W/m2
18:35 0.9 °C -0.3 °C 1007.3 hPa WNW 6.4 km/h 11.3 km/h 92 % 0 mm 0 W/m2
18:40 0.8 °C -0.3 °C 1007 hPa West 6.4 km/h 9.7 km/h 92 % 0 mm 0 W/m2
18:45 0.8 °C -0.3 °C 1007 hPa WNW 3.2 km/h 8 km/h 92 % 0 mm 0 W/m2
18:50 0.7 °C -0.4 °C 1007 hPa WNW 1.6 km/h 9.7 km/h 92 % 0 mm 0 W/m2
18:55 0.6 °C -0.6 °C 1006.7 hPa West 6.4 km/h 9.7 km/h 92 % 0 mm 0 W/m2
19:00 0.6 °C -0.6 °C 1006.7 hPa West 6.4 km/h 9.7 km/h 92 % 0 mm 0 W/m2
19:05 0.5 °C -0.7 °C 1006.7 hPa West 3.2 km/h 8 km/h 92 % 0 mm 0 W/m2
19:10 0.4 °C -0.7 °C 1006.7 hPa West 6.4 km/h 8 km/h 92 % 0 mm 0 W/m2
19:15 0.4 °C -0.7 °C 1006.7 hPa West 8 km/h 11.3 km/h 92 % 0 mm 0 W/m2
19:20 0.4 °C -0.7 °C 1006.7 hPa WNW 8 km/h 12.9 km/h 92 % 0 mm 0 W/m2
19:25 0.4 °C -0.7 °C 1006.7 hPa WNW 8 km/h 11.3 km/h 92 % 0 mm 0 W/m2
19:26 0.4 °C -0.7 °C 1006.7 hPa West 8 km/h 12.9 km/h 92 % 0 mm 0 W/m2
19:36 0.5 °C -0.7 °C 1006.3 hPa West 6.4 km/h 11.3 km/h 92 % 0 mm 0 W/m2
19:41 0.6 °C -0.6 °C 1006.3 hPa West 4.8 km/h 8 km/h 92 % 0 mm 0 W/m2
19:46 0.6 °C -0.6 °C 1006.3 hPa West 6.4 km/h 9.7 km/h 92 % 0 mm 0 W/m2
19:51 0.6 °C -0.6 °C 1006 hPa West 4.8 km/h 11.3 km/h 92 % 0 mm 0 W/m2
19:56 0.6 °C -0.6 °C 1006 hPa West 6.4 km/h 11.3 km/h 92 % 0 mm 0 W/m2
20:01 0.5 °C -0.7 °C 1006 hPa WNW 4.8 km/h 9.7 km/h 92 % 0 mm 0 W/m2
20:06 0.4 °C -0.7 °C 1005.6 hPa WNW 8 km/h 11.3 km/h 92 % 0 mm 0 W/m2
20:11 0.4 °C -0.7 °C 1005.6 hPa West 4.8 km/h 11.3 km/h 92 % 0 mm 0 W/m2
20:16 0.5 °C -0.7 °C 1005.6 hPa West 3.2 km/h 8 km/h 92 % 0 mm 0 W/m2
20:26 0.6 °C -0.6 °C 1005.3 hPa Calm     92 % 0 mm 0 W/m2
20:31 0.6 °C -0.6 °C 1005.3 hPa Calm     92 % 0 mm 0 W/m2
20:36 0.6 °C -0.6 °C 1005 hPa Calm     92 % 0 mm 0 W/m2
20:46 0.6 °C -0.6 °C 1005 hPa West 1.6 km/h 6.4 km/h 92 % 0 mm 0 W/m2
20:51 0.6 °C -0.6 °C 1005 hPa West 4.8 km/h 8 km/h 92 % 0 mm 0 W/m2
20:56 0.7 °C -0.4 °C 1005 hPa West 3.2 km/h 8 km/h 92 % 0 mm 0 W/m2
21:01 0.8 °C -0.2 °C 1004.6 hPa West 4.8 km/h 8 km/h 93 % 0 mm 0 W/m2
21:06 0.8 °C -0.2 °C 1004.6 hPa WSW 4.8 km/h 8 km/h 93 % 0 mm 0 W/m2
21:10 0.8 °C -0.2 °C 1004.6 hPa WSW 6.4 km/h 9.7 km/h 93 % 0 mm 0 W/m2
21:15 0.9 °C -0.1 °C 1004.3 hPa WSW 1.6 km/h 3.2 km/h 93 % 0 mm 0 W/m2
21:20 0.9 °C -0.1 °C 1004.3 hPa Calm     93 % 0 mm 0 W/m2
21:25 0.9 °C -0.1 °C 1004.3 hPa Calm     93 % 0 mm 0 W/m2
21:30 0.9 °C -0.1 °C 1003.9 hPa Calm     93 % 0 mm 0 W/m2
21:35 0.8 °C -0.2 °C 1003.9 hPa Calm     93 % 0 mm 0 W/m2
21:40 0.8 °C -0.2 °C 1003.9 hPa WSW 3.2 km/h 6.4 km/h 93 % 0 mm 0 W/m2
21:45 0.8 °C -0.2 °C 1003.6 hPa WSW 3.2 km/h 6.4 km/h 93 % 0 mm 0 W/m2
21:50 0.8 °C -0.2 °C 1003.6 hPa Calm   3.2 km/h 93 % 0 mm 0 W/m2
21:55 0.8 °C -0.2 °C 1003.3 hPa WSW 1.6 km/h 3.2 km/h 93 % 0 mm 0 W/m2
22:00 0.8 °C -0.2 °C 1003.3 hPa Calm     93 % 0 mm 0 W/m2
22:05 0.8 °C -0.2 °C 1003.3 hPa WSW 1.6 km/h 3.2 km/h 93 % 0 mm 0 W/m2
22:10 0.8 °C -0.1 °C 1002.9 hPa WNW 3.2 km/h 8 km/h 94 % 0 mm 0 W/m2
22:15 0.9 °C 0.1 °C 1002.9 hPa WNW 3.2 km/h 6.4 km/h 94 % 0 mm 0 W/m2
22:20 0.9 °C 0.1 °C 1002.6 hPa WNW 1.6 km/h 6.4 km/h 94 % 0 mm 0 W/m2
22:25 0.9 °C 0.1 °C 1002.6 hPa Calm   3.2 km/h 94 % 0 mm 0 W/m2
22:30 1 °C 0.2 °C 1002.3 hPa WNW 1.6 km/h 4.8 km/h 94 % 0 mm 0 W/m2
22:40 1 °C 0.2 °C 1001.9 hPa Calm   1.6 km/h 94 % 0 mm 0 W/m2
22:45 0.9 °C 0.1 °C 1001.9 hPa WNW 4.8 km/h 8 km/h 94 % 0 mm 0 W/m2
22:50 0.9 °C 0.1 °C 1001.9 hPa WNW 4.8 km/h 8 km/h 94 % 0 mm 0 W/m2
22:55 0.9 °C 0.1 °C 1001.9 hPa WNW 3.2 km/h 6.4 km/h 94 % 0 mm 0 W/m2
23:01 0.9 °C 0.1 °C 1001.9 hPa WNW 1.6 km/h 6.4 km/h 94 % 0 mm 0 W/m2
23:06 0.9 °C 0.1 °C 1001.6 hPa WNW 1.6 km/h 6.4 km/h 94 % 0 mm 0 W/m2
23:11 0.9 °C 0.1 °C 1001.6 hPa WNW 1.6 km/h 3.2 km/h 94 % 0 mm 0 W/m2
23:16 0.9 °C 0.1 °C 1001.6 hPa Calm   3.2 km/h 94 % 0 mm 0 W/m2
23:21 0.9 °C 0.1 °C 1001.2 hPa WNW 3.2 km/h 6.4 km/h 94 % 0 mm 0 W/m2
23:26 0.9 °C 0.1 °C 1001.2 hPa WNW 1.6 km/h 4.8 km/h 94 % 0 mm 0 W/m2
23:36 0.9 °C 0.1 °C 1000.9 hPa WNW 1.6 km/h 4.8 km/h 94 % 0 mm 0 W/m2
23:41 0.9 °C 0.1 °C 1000.9 hPa Calm   1.6 km/h 94 % 0 mm 0 W/m2
23:46 0.9 °C 0.1 °C 1000.6 hPa WNW 1.6 km/h 6.4 km/h 94 % 0 mm 0 W/m2
23:51 1 °C 0.2 °C 1000.6 hPa Calm   3.2 km/h 94 % 0 mm 0 W/m2
23:56 1 °C 0.2 °C 1000.2 hPa WNW 4.8 km/h 8 km/h 94 % 0 mm 0 W/m2
Delerius-Weather
Compliments of Weather Underground - 2.25 mb

Data updates at regular intervals.